Time;durP1;ratioP1;P1;durP2;ratioP2;P2;SDS_P1;SDS_P2;PMS_P1;PMS_P2;Temp;Humidity;BMP_temperature;BMP_pressure;BME280_temperature;BME280_humidity;BME280_pressure;Samples;Min_cycle;Max_cycle;Signal;HPM_P1;HPM_P2
2021/09/27 00:00:31;;;;;;;0.70;0.70;;;21.90;51.10;;;26.02;33.83;101308.88;5114999;28;20333;-11
2021/09/27 00:02:57;;;;;;;0.73;0.73;;;21.90;51.10;;;26.01;33.83;101302.66;5115292;28;20046;-12
2021/09/27 00:05:24;;;;;;;0.80;0.80;;;21.90;51.20;;;26.01;33.91;101309.84;5115001;28;20529;-12
2021/09/27 00:07:50;;;;;;;0.65;0.65;;;21.90;51.20;;;26.01;33.84;101309.84;5114887;28;20062;-11
2021/09/27 00:10:24;;;;;;;0.80;0.80;;;21.90;51.20;;;26.01;33.86;101310.72;5115173;28;20075;-12
2021/09/27 00:12:51;;;;;;;1.00;0.90;;;21.90;51.30;;;26.01;33.94;101312.50;5114955;28;20082;-11
2021/09/27 00:15:29;;;;;;;0.60;0.60;;;21.90;51.20;;;26.00;33.92;101308.16;5114879;28;20491;-12
2021/09/27 00:17:56;;;;;;;0.70;0.70;;;21.90;51.20;;;25.99;33.92;101301.91;5114427;28;20077;-12
2021/09/27 00:20:22;;;;;;;0.68;0.68;;;21.90;51.20;;;26.02;33.89;101303.50;5114635;28;20067;-12
2021/09/27 00:22:48;;;;;;;0.80;0.80;;;21.90;51.20;;;26.00;33.85;101297.44;5115065;28;20102;-11
2021/09/27 00:25:20;;;;;;;0.60;0.60;;;21.90;51.30;;;26.00;33.87;101300.09;5114533;28;20044;-11
2021/09/27 00:27:47;;;;;;;0.70;0.70;;;21.80;51.20;;;25.99;33.84;101285.00;5114975;28;20039;-12
2021/09/27 00:30:16;;;;;;;0.80;0.80;;;21.80;51.30;;;25.98;33.97;101296.69;5114765;28;20047;-12
2021/09/27 00:32:42;;;;;;;0.90;0.90;;;21.90;51.30;;;26.00;33.94;101292.06;5114576;28;20522;-12
2021/09/27 00:35:10;;;;;;;0.77;0.77;;;21.90;51.30;;;25.98;34.10;101286.81;5114470;28;20043;-12
2021/09/27 00:37:36;;;;;;;0.70;0.70;;;21.90;51.30;;;25.99;34.09;101285.84;5114533;28;20442;-11
2021/09/27 00:40:06;;;;;;;0.80;0.80;;;21.90;51.40;;;25.98;33.89;101277.94;5114314;28;20039;-12
2021/09/27 00:42:31;;;;;;;0.65;0.65;;;21.80;51.80;;;25.97;33.97;101270.88;5114300;28;20043;-12
2021/09/27 00:44:57;;;;;;;0.60;0.60;;;21.80;51.30;;;25.98;33.95;101276.09;5114370;28;20116;-12
2021/09/27 00:47:23;;;;;;;0.80;0.80;;;21.80;51.30;;;25.97;33.97;101277.06;5114502;28;20052;-12
2021/09/27 00:49:50;;;;;;;0.75;0.75;;;21.90;51.30;;;25.97;33.85;101268.19;5114259;28;20177;-12
2021/09/27 00:52:17;;;;;;;0.70;0.70;;;21.80;51.30;;;25.99;34.08;101264.41;5114192;28;20104;-12
2021/09/27 00:54:44;;;;;;;0.80;0.80;;;21.80;51.30;;;25.98;34.00;101265.38;5114521;28;20147;-12
2021/09/27 00:57:16;;;;;;;0.60;0.60;;;21.80;51.30;;;25.96;33.93;101258.44;5094785;28;20425;-12
2021/09/27 00:59:47;;;;;;;0.80;0.80;;;21.90;51.30;;;25.98;33.99;101261.88;5114671;28;20127;-12
2021/09/27 01:02:13;;;;;;;0.70;0.70;;;21.80;51.30;;;25.98;33.98;101265.38;5114471;28;20097;-11
2021/09/27 01:04:39;;;;;;;0.75;0.75;;;21.80;51.30;;;25.98;33.94;101252.00;5114013;28;20047;-12
2021/09/27 01:07:16;;;;;;;0.70;0.70;;;21.90;51.30;;;26.00;33.96;101249.19;5114325;28;20124;-12
2021/09/27 01:10:14;;;;;;;1.15;1.05;;;21.90;51.30;;;26.01;33.92;101250.88;5094628;28;20052;-11
2021/09/27 01:13:18;;;;;;;0.73;0.73;;;21.90;51.30;;;26.02;33.91;101256.13;5113994;28;20035;-12
2021/09/27 01:16:11;;;;;;;0.65;0.65;;;21.80;51.30;;;26.00;33.98;101259.91;5094806;28;20040;-12
2021/09/27 01:19:17;;;;;;;0.60;0.60;;;21.80;51.30;;;26.00;34.00;101259.91;5095553;28;20052;-11
2021/09/27 01:22:01;;;;;;;0.70;0.70;;;21.80;51.30;;;25.98;33.95;101251.16;5094127;28;20491;-11
2021/09/27 01:25:07;;;;;;;0.63;0.63;;;21.90;51.30;;;25.99;33.80;101245.63;5094286;28;20098;-12
2021/09/27 01:28:29;;;;;;;0.82;0.80;;;21.90;51.30;;;26.00;33.93;101247.34;5113391;28;20060;-15
2021/09/27 01:31:09;;;;;;;0.65;0.65;;;21.90;51.30;;;25.97;33.95;101244.06;5113985;28;20078;-11
2021/09/27 01:33:43;;;;;;;0.85;0.80;;;21.90;51.40;;;25.95;33.97;101238.81;5095652;28;20381;-12
2021/09/27 01:36:27;;;;;;;0.80;0.73;;;21.90;51.30;;;25.97;33.88;101242.22;5095309;28;20040;-11
2021/09/27 01:39:07;;;;;;;0.70;0.70;;;21.90;51.30;;;25.93;33.69;101242.56;5093199;28;20052;-11
2021/09/27 01:41:57;;;;;;;0.80;0.80;;;21.90;51.30;;;25.97;34.05;101252.94;5094166;28;20048;-12
2021/09/27 01:44:35;;;;;;;0.73;0.73;;;21.90;51.30;;;25.96;33.95;101256.63;5113468;28;20104;-12
2021/09/27 01:47:22;;;;;;;0.70;0.70;;;21.80;51.30;;;25.95;33.88;101252.22;5095055;28;20077;-12
2021/09/27 01:50:03;;;;;;;0.60;0.60;;;21.80;51.30;;;25.95;34.09;101251.34;5113324;28;20108;-12
2021/09/27 01:52:39;;;;;;;0.60;0.60;;;21.90;51.40;;;25.99;33.97;101256.34;5095060;28;20048;-12
2021/09/27 01:55:40;;;;;;;0.60;0.60;;;21.90;51.40;;;25.98;34.00;101253.81;5095243;28;20044;-12
2021/09/27 01:58:21;;;;;;;0.70;0.70;;;21.90;51.40;;;25.98;33.96;101243.94;5095461;28;20535;-12
2021/09/27 02:00:59;;;;;;;0.60;0.60;;;21.90;51.30;;;25.97;34.05;101242.22;5095265;28;20328;-12
2021/09/27 02:03:35;;;;;;;0.70;0.70;;;21.90;51.30;;;25.97;33.91;101244.06;5095253;28;20077;-12
2021/09/27 02:06:30;;;;;;;0.70;0.70;;;21.90;51.30;;;25.98;34.04;101256.50;5095270;28;20123;-12
2021/09/27 02:09:09;;;;;;;0.70;0.70;;;21.90;51.30;;;25.99;34.09;101261.72;5113007;28;20109;-11
2021/09/27 02:11:39;;;;;;;0.70;0.70;;;21.90;51.30;;;25.97;33.79;101260.16;5093906;28;20052;-12
2021/09/27 02:14:18;;;;;;;0.80;0.80;;;21.90;51.30;;;25.97;33.90;101257.47;5113176;28;20047;-11
2021/09/27 02:17:10;;;;;;;0.70;0.70;;;21.90;51.30;;;26.00;33.89;101265.28;5113041;28;20486;-12
2021/09/27 02:20:02;;;;;;;0.70;0.70;;;21.80;51.30;;;25.97;33.90;101257.47;5093422;28;20571;-12
2021/09/27 02:22:43;;;;;;;0.70;0.70;;;21.80;51.30;;;25.99;34.01;101266.22;5113206;28;20480;-12
2021/09/27 02:25:26;;;;;;;0.60;0.60;;;21.90;51.40;;;26.00;33.99;101267.94;5077876;28;20071;-12
2021/09/27 02:27:52;;;;;;;0.70;0.70;;;21.90;51.40;;;25.96;33.95;101259.31;5093061;28;20492;-12
2021/09/27 02:30:24;;;;;;;0.70;0.70;;;21.90;51.40;;;25.96;33.87;101264.66;5092714;28;20566;-12
2021/09/27 02:33:05;;;;;;;0.80;0.80;;;21.90;51.30;;;25.96;33.98;101261.97;5094623;28;20070;-11
2021/09/27 02:35:48;;;;;;;0.70;0.70;;;21.90;51.40;;;26.01;33.85;101267.84;5094890;28;20127;-12
2021/09/27 02:39:06;;;;;;;1.02;0.98;;;21.90;51.30;;;26.03;33.97;101267.72;5094515;28;20105;-12
2021/09/27 02:41:38;;;;;;;0.70;0.70;;;21.90;51.30;;;26.00;33.92;101271.47;5091354;28;20059;-12
2021/09/27 02:44:04;;;;;;;0.80;0.80;;;21.90;51.30;;;26.00;34.03;101265.28;5098370;28;20078;-11
2021/09/27 02:46:31;;;;;;;0.73;0.70;;;21.90;51.40;;;25.97;33.97;101252.94;5116415;28;20057;-12
2021/09/27 02:49:10;;;;;;;0.60;0.60;;;21.80;51.30;;;25.95;34.17;101240.63;5116211;28;20483;-11
2021/09/27 02:51:40;;;;;;;0.70;0.70;;;21.80;51.30;;;25.95;33.96;101241.50;5116072;28;20055;-12
2021/09/27 02:54:08;;;;;;;0.70;0.70;;;21.80;51.30;;;25.98;33.99;101237.75;5116274;28;20109;-12
2021/09/27 02:57:02;;;;;;;0.70;0.70;;;21.80;51.30;;;25.98;33.94;101240.44;5080028;28;20408;-11
2021/09/27 02:59:46;;;;;;;0.82;0.82;;;21.80;51.40;;;25.96;34.01;101237.88;5097818;28;20135;-12
2021/09/27 03:02:59;;;;;;;0.70;0.70;;;21.80;51.40;;;26.00;34.03;101242.00;5114711;28;20407;-12
2021/09/27 03:05:45;;;;;;;0.75;0.75;;;21.80;51.40;;;25.93;34.03;101248.78;5114621;28;20044;-11
2021/09/27 03:08:45;;;;;;;0.60;0.60;;;21.80;51.40;;;25.98;33.88;101248.47;5116305;28;20043;-12
2021/09/27 03:11:39;;;;;;;0.70;0.70;;;21.90;51.30;;;25.95;34.06;101251.34;5115738;28;20051;-12
2021/09/27 03:15:01;;;;;;;0.70;0.70;;;21.80;51.30;;;25.99;33.95;101263.56;5096606;28;20152;-12
2021/09/27 03:17:45;;;;;;;0.70;0.70;;;21.80;51.40;;;25.94;34.19;101263.88;5115981;28;20042;-11
2021/09/27 03:20:29;;;;;;;0.70;0.70;;;21.80;51.40;;;25.96;33.99;101271.81;5097130;28;20051;-12
2021/09/27 03:22:57;;;;;;;0.60;0.60;;;21.80;51.40;;;25.96;34.01;101275.38;5097488;28;20059;-11
2021/09/27 03:25:57;;;;;;;0.70;0.70;;;21.80;51.40;;;25.95;34.01;101276.34;5115945;28;20040;-11
2021/09/27 03:28:57;;;;;;;0.63;0.63;;;21.80;51.40;;;25.95;33.98;101275.47;5096358;28;20052;-11
2021/09/27 03:31:39;;;;;;;0.77;0.77;;;21.80;51.40;;;25.93;34.11;101269.34;5097757;28;20139;-12
2021/09/27 03:34:23;;;;;;;0.68;0.68;;;21.80;51.40;;;25.93;34.12;101275.56;5115970;28;20051;-12
2021/09/27 03:37:13;;;;;;;0.77;0.77;;;21.90;51.40;;;25.95;34.00;101281.69;5097247;28;20403;-12
2021/09/27 03:40:14;;;;;;;0.80;0.80;;;21.80;51.40;;;25.95;34.02;101276.34;5115365;28;20108;-11
2021/09/27 03:43:10;;;;;;;0.85;0.85;;;21.90;51.40;;;25.98;34.04;101280.63;5097187;28;20052;-12
2021/09/27 03:45:57;;;;;;;0.70;0.70;;;21.80;51.30;;;25.92;33.89;101276.53;5115683;28;20047;-12
2021/09/27 03:49:18;;;;;;;0.70;0.70;;;21.80;51.30;;;26.00;34.00;101270.63;5097129;28;20611;-11
2021/09/27 03:52:26;;;;;;;0.70;0.70;;;21.80;51.40;;;25.98;33.98;101265.38;5062289;28;20048;-12
2021/09/27 03:55:07;;;;;;;0.70;0.70;;;21.80;51.40;;;25.95;33.95;101265.63;5103483;28;20051;-12
2021/09/27 03:57:43;;;;;;;0.50;0.50;;;21.80;51.90;;;25.97;34.06;101266.34;5096776;28;20059;-11
2021/09/27 04:00:16;;;;;;;0.80;0.80;;;21.90;51.40;;;25.94;34.04;101257.66;5093714;28;20048;-12
2021/09/27 04:03:34;;;;;;;0.60;0.60;;;21.80;51.90;;;25.96;34.08;101245.03;5097270;28;20390;-12
2021/09/27 04:06:09;;;;;;;0.68;0.68;;;21.80;51.40;;;25.95;34.00;101259.38;5097161;28;20059;-12
2021/09/27 04:09:18;;;;;;;0.68;0.68;;;21.80;51.40;;;25.97;34.11;101265.50;5115026;28;20052;-12
2021/09/27 04:12:03;;;;;;;0.70;0.70;;;21.80;51.50;;;25.90;34.09;101254.38;5078507;28;20047;-11
2021/09/27 04:15:15;;;;;;;0.65;0.65;;;21.80;51.40;;;25.94;34.10;101261.19;5096535;28;20057;-12
2021/09/27 04:18:04;;;;;;;0.80;0.80;;;21.80;51.40;;;25.91;34.05;101261.44;5086532;28;20381;-12
2021/09/27 04:21:05;;;;;;;0.82;0.82;;;21.80;51.40;;;25.97;33.99;101268.19;5096372;28;20166;-12
2021/09/27 04:24:05;;;;;;;0.65;0.65;;;21.80;51.50;;;25.96;34.01;101264.66;5114633;28;20495;-12
2021/09/27 04:26:57;;;;;;;0.70;0.70;;;21.80;51.50;;;25.94;34.17;101255.00;5114468;28;20058;-11
2021/09/27 04:30:11;;;;;;;0.88;0.88;;;21.80;51.50;;;25.93;34.05;101250.59;5114495;28;20100;-12
2021/09/27 04:33:21;;;;;;;0.80;0.80;;;21.80;51.40;;;25.95;34.02;101254.03;5114449;28;20438;-12
2021/09/27 04:36:21;;;;;;;0.65;0.65;;;21.80;51.50;;;25.95;33.98;101259.38;5095027;28;20051;-11
2021/09/27 04:38:50;;;;;;;0.80;0.80;;;21.80;51.50;;;25.91;34.12;101253.41;5094623;28;20055;-12
2021/09/27 04:41:46;;;;;;;0.70;0.70;;;21.80;51.50;;;25.91;34.17;101253.41;5114323;28;20513;-12
2021/09/27 04:45:08;;;;;;;0.75;0.75;;;21.80;51.50;;;25.96;33.99;101242.34;5114287;28;20489;-11
2021/09/27 04:47:43;;;;;;;0.80;0.80;;;21.80;51.60;;;25.91;33.92;101245.38;5057204;28;20062;-12
2021/09/27 04:50:54;;;;;;;0.52;0.52;;;21.80;51.60;;;25.92;34.04;101235.50;5096142;28;20055;-12
2021/09/27 04:53:48;;;;;;;0.70;0.70;;;21.80;51.60;;;25.93;34.07;101237.19;5079152;28;20106;-12
2021/09/27 04:56:20;;;;;;;0.80;0.80;;;21.70;51.60;;;25.91;34.31;101240.03;5114243;28;20126;-12
2021/09/27 04:59:06;;;;;;;0.80;0.63;;;21.80;51.60;;;25.87;34.17;101227.81;5114103;28;20096;-12
2021/09/27 05:01:48;;;;;;;0.75;0.75;;;21.70;51.60;;;25.91;34.11;101244.50;5093866;28;20118;-11
2021/09/27 05:04:58;;;;;;;0.70;0.70;;;21.70;51.60;;;25.93;34.23;101237.19;5113830;28;20175;-12
2021/09/27 05:07:39;;;;;;;0.70;0.70;;;21.70;51.60;;;25.91;34.14;101233.78;5113731;28;20174;-12
2021/09/27 05:10:36;;;;;;;0.77;0.77;;;21.70;51.60;;;25.93;34.28;101237.19;5114058;28;20281;-11
2021/09/27 05:13:32;;;;;;;0.60;0.60;;;21.80;51.70;;;25.90;34.36;101235.63;5114255;28;20061;-11
2021/09/27 05:16:17;;;;;;;0.82;0.82;;;21.70;51.70;;;25.88;34.23;101234.88;5113806;28;20047;-12
2021/09/27 05:19:30;;;;;;;0.80;0.80;;;21.70;51.60;;;25.90;34.22;101232.94;5094844;28;20044;-12
2021/09/27 05:22:14;;;;;;;0.70;0.70;;;21.80;51.60;;;25.89;34.22;101231.22;5113925;28;20056;-12
2021/09/27 05:25:32;;;;;;;0.80;0.80;;;21.80;51.60;;;25.92;34.21;101231.00;5114073;28;20042;-11
2021/09/27 05:28:11;;;;;;;0.70;0.70;;;21.70;51.60;;;25.89;34.07;101232.09;5095370;28;20093;-12
2021/09/27 05:30:51;;;;;;;0.80;0.80;;;21.70;51.60;;;25.88;34.23;101225.03;5095703;28;20150;-12
2021/09/27 05:33:28;;;;;;;0.80;0.80;;;21.70;51.70;;;25.90;34.16;101230.25;5095664;28;20414;-12
2021/09/27 05:36:37;;;;;;;0.80;0.80;;;21.70;51.70;;;25.92;34.24;101222.94;5113643;28;20043;-12
2021/09/27 05:39:43;;;;;;;0.73;0.73;;;21.70;51.70;;;25.86;34.26;101218.06;5113249;28;20047;-12
2021/09/27 05:42:50;;;;;;;0.80;0.80;;;21.70;51.70;;;25.91;34.20;101212.34;5095458;28;20479;-12
2021/09/27 05:46:14;;;;;;;0.60;0.60;;;21.70;51.70;;;25.91;34.17;101209.66;5095212;28;20052;-11
2021/09/27 05:48:57;;;;;;;0.60;0.60;;;21.70;51.70;;;25.85;34.26;101200.31;5113141;28;20054;-11
2021/09/27 05:51:37;;;;;;;0.88;0.88;;;21.70;51.60;;;25.87;34.34;101199.19;5095019;28;20058;-12
2021/09/27 05:54:49;;;;;;;0.70;0.70;;;21.80;51.70;;;25.88;34.19;101208.09;5094199;28;20130;-12
2021/09/27 05:57:45;;;;;;;0.90;0.90;;;21.70;51.70;;;25.90;34.27;101219.53;5066359;28;20543;-11
2021/09/27 06:00:20;;;;;;;0.70;0.70;;;21.80;51.70;;;25.90;34.15;101219.53;5094837;28;20475;-12
2021/09/27 06:03:22;;;;;;;0.65;0.65;;;21.80;51.70;;;25.91;34.34;101218.59;5095222;28;20456;-12
2021/09/27 06:06:12;;;;;;;0.68;0.68;;;21.80;51.60;;;25.91;34.20;101212.34;5093477;28;20040;-11
2021/09/27 06:09:11;;;;;;;0.80;0.80;;;21.80;51.60;;;25.91;34.15;101210.53;5113138;28;20100;-11
2021/09/27 06:12:02;;;;;;;0.88;0.88;;;21.80;51.60;;;25.88;34.25;101211.63;5112887;28;20499;-11
2021/09/27 06:14:32;;;;;;;0.80;0.80;;;21.80;51.60;;;25.91;34.23;101223.94;5093764;28;20040;-11
2021/09/27 06:17:20;;;;;;;0.70;0.70;;;21.80;51.60;;;25.90;34.17;101224.91;5095227;28;20361;-11
2021/09/27 06:20:10;;;;;;;0.60;0.60;;;21.80;52.20;;;25.91;34.23;101218.59;5112829;28;20096;-12
2021/09/27 06:22:42;;;;;;;0.70;0.70;;;21.80;51.60;;;25.91;34.15;101217.72;5094721;28;20043;-11
2021/09/27 06:25:24;;;;;;;0.98;0.85;;;21.80;51.60;;;25.91;34.03;101212.34;5094917;28;20072;-11
2021/09/27 06:28:18;;;;;;;0.80;0.80;;;21.80;51.60;;;25.94;34.21;101210.28;5094488;28;20047;-12
2021/09/27 06:31:44;;;;;;;0.63;0.63;;;21.80;51.50;;;25.97;34.08;101209.25;5053708;28;20055;-12
2021/09/27 06:34:22;;;;;;;0.80;0.80;;;21.80;51.50;;;25.93;34.28;101213.94;5063766;28;20121;-12
2021/09/27 06:36:49;;;;;;;0.70;0.70;;;21.80;51.50;;;25.92;34.18;101209.56;5094235;28;20483;-12
2021/09/27 06:39:27;;;;;;;0.80;0.80;;;21.80;51.50;;;25.94;34.12;101220.16;5093934;28;20052;-11
2021/09/27 06:41:55;;;;;;;0.68;0.68;;;21.80;51.50;;;25.93;34.17;101202.38;5094787;28;20074;-12
2021/09/27 06:44:24;;;;;;;0.70;0.70;;;21.80;51.50;;;25.93;34.35;101202.38;5112679;28;20044;-12
2021/09/27 06:46:51;;;;;;;0.70;0.70;;;21.80;51.50;;;25.93;34.19;101203.25;5112569;28;20093;-11
2021/09/27 06:49:18;;;;;;;0.70;0.70;;;21.80;51.50;;;25.95;34.02;101195.97;5112371;28;20050;-12
2021/09/27 06:51:44;;;;;;;0.80;0.80;;;21.80;51.50;;;25.94;34.13;101201.41;5112421;28;20472;-12
2021/09/27 06:54:16;;;;;;;0.70;0.70;;;21.80;51.50;;;25.94;33.98;101194.22;5112264;28;20056;-12
2021/09/27 06:56:42;;;;;;;0.70;0.70;;;21.80;51.50;;;25.94;34.10;101201.41;5112272;28;20052;-12
2021/09/27 06:59:08;;;;;;;0.70;0.70;;;21.80;51.60;;;25.96;34.05;101196.81;5112511;28;20101;-12
2021/09/27 07:01:35;;;;;;;0.90;0.88;;;21.80;51.60;;;25.96;34.21;101210.19;5110242;28;20453;-11
2021/09/27 07:04:01;;;;;;;0.60;0.60;;;21.80;51.50;;;25.96;34.02;101207.53;5112284;28;20403;-11
2021/09/27 07:06:27;;;;;;;0.70;0.70;;;21.80;51.50;;;25.94;34.09;101204.94;5112758;28;20403;-12
2021/09/27 07:08:54;;;;;;;0.60;0.60;;;21.80;51.50;;;25.96;34.17;101211.06;5112001;28;20051;-12
2021/09/27 07:11:20;;;;;;;0.60;0.60;;;21.90;51.50;;;25.97;34.27;101210.09;5093807;28;20055;-12
2021/09/27 07:13:46;;;;;;;0.80;0.80;;;21.90;51.50;;;25.98;34.16;101208.28;5112215;28;20047;-11
2021/09/27 07:16:12;;;;;;;0.60;0.60;;;21.80;51.40;;;25.96;34.13;101200.34;5112751;28;20073;-12
2021/09/27 07:18:38;;;;;;;0.70;0.70;;;21.90;51.50;;;25.98;34.17;101211.81;5112024;28;20052;-12
2021/09/27 07:21:08;;;;;;;0.68;0.68;;;21.90;51.50;;;26.00;34.23;101214.38;5111875;28;20055;-12
2021/09/27 07:23:38;;;;;;;0.63;0.63;;;21.90;51.50;;;26.00;34.09;101209.84;5112175;28;20046;-12
2021/09/27 07:26:10;;;;;;;0.80;0.80;;;21.90;51.40;;;26.03;34.06;101209.63;5112207;28;20403;-12
2021/09/27 07:28:37;;;;;;;0.70;0.70;;;21.90;51.30;;;26.02;34.16;101209.72;5115500;28;20100;-16
2021/09/27 07:31:05;;;;;;;0.70;0.70;;;21.90;51.40;;;26.02;34.08;101209.72;5115468;28;20055;-12
2021/09/27 07:33:32;;;;;;;0.70;0.70;;;21.90;51.30;;;26.03;34.01;101209.63;5115422;28;20065;-12
2021/09/27 07:35:58;;;;;;;0.60;0.60;;;21.90;51.40;;;26.02;34.01;101204.38;5115320;28;20043;-12
2021/09/27 07:38:24;;;;;;;0.70;0.70;;;21.90;51.40;;;26.01;34.15;101195.50;5115357;28;20506;-11
2021/09/27 07:40:52;;;;;;;0.80;0.80;;;21.90;51.40;;;26.02;34.05;101199.84;5115744;28;20372;-12
2021/09/27 07:43:18;;;;;;;0.70;0.70;;;21.90;51.50;;;26.02;34.27;101197.19;5115671;28;20092;-11
2021/09/27 07:45:44;;;;;;;0.60;0.60;;;21.90;51.40;;;26.02;34.06;101202.53;5115645;28;20108;-12
2021/09/27 07:48:13;;;;;;;0.73;0.73;;;21.90;51.40;;;26.02;34.05;101196.34;5115316;28;20047;-12
2021/09/27 07:50:42;;;;;;;0.60;0.60;;;22.00;51.40;;;26.06;34.10;101206.69;5115256;28;20087;-12
2021/09/27 07:53:09;;;;;;;0.63;0.63;;;22.00;51.30;;;26.06;34.08;101203.13;5115869;28;20049;-11
2021/09/27 07:55:34;;;;;;;0.80;0.80;;;22.00;51.30;;;26.06;34.02;101204.00;5115208;28;20077;-12
2021/09/27 07:58:00;;;;;;;0.60;0.60;;;22.00;51.30;;;26.06;34.21;101209.38;5115052;28;20043;-12
2021/09/27 08:00:28;;;;;;;0.77;0.77;;;22.00;51.30;;;26.06;33.96;101212.06;5115024;28;20043;-12
2021/09/27 08:02:54;;;;;;;0.70;0.70;;;22.00;51.30;;;26.06;34.12;101209.38;5115008;28;20130;-12
2021/09/27 08:05:25;;;;;;;0.70;0.70;;;22.00;51.30;;;26.09;33.98;101212.78;5114944;28;20058;-12
2021/09/27 08:07:51;;;;;;;0.70;0.70;;;22.00;51.30;;;26.10;33.95;101209.97;5115089;28;20487;-12
2021/09/27 08:10:19;;;;;;;0.68;0.68;;;22.00;51.30;;;26.07;33.97;101205.72;5114871;28;20109;-12
2021/09/27 08:12:45;;;;;;;0.70;0.70;;;22.00;51.30;;;26.11;34.00;101211.72;5114932;28;20572;-12
2021/09/27 08:15:19;;;;;;;0.85;0.82;;;22.00;51.20;;;26.10;34.03;101215.34;5114874;28;20071;-12
2021/09/27 08:17:48;;;;;;;0.68;0.68;;;22.00;51.20;;;26.11;33.93;101216.19;5114758;28;20495;-12
2021/09/27 08:20:17;;;;;;;0.65;0.65;;;22.00;51.20;;;26.12;33.91;101217.91;5114670;28;20058;-12
2021/09/27 08:22:45;;;;;;;0.63;0.63;;;22.00;51.20;;;26.15;34.07;101217.66;5114666;28;20044;-12
2021/09/27 08:25:11;;;;;;;0.95;0.95;;;22.00;51.10;;;26.12;33.99;101208.03;5114517;28;20050;-11
2021/09/27 08:27:37;;;;;;;0.80;0.80;;;22.00;51.20;;;26.12;33.96;101208.03;5114706;28;20117;-12
2021/09/27 08:30:08;;;;;;;0.73;0.73;;;22.00;51.20;;;26.11;34.00;101216.19;5114525;28;20090;-12
2021/09/27 08:32:34;;;;;;;0.82;0.82;;;22.00;51.20;;;26.11;33.92;101222.44;5114859;28;20055;-12
2021/09/27 08:35:00;;;;;;;0.80;0.80;;;22.10;51.30;;;26.10;33.85;101223.38;5114532;28;20050;-12
2021/09/27 08:37:26;;;;;;;0.80;0.80;;;22.00;51.30;;;26.11;33.89;101226.91;5114063;28;20480;-12
2021/09/27 08:39:52;;;;;;;0.90;0.90;;;22.00;51.40;;;26.10;34.05;101227.91;5114651;28;20392;-12
2021/09/27 08:42:33;;;;;;;0.90;0.90;;;22.00;51.50;;;26.10;34.16;101223.38;5114340;28;20403;-11
2021/09/27 08:45:17;;;;;;;0.90;0.90;;;22.00;51.50;;;26.09;34.12;101226.19;5114352;28;20240;-12
2021/09/27 08:48:20;;;;;;;0.70;0.70;;;22.00;51.50;;;26.13;34.16;101241.91;5114341;28;20043;-11
2021/09/27 08:50:46;;;;;;;0.88;0.88;;;22.00;51.50;;;26.11;34.18;101249.22;5114190;28;20056;-11
2021/09/27 08:53:29;;;;;;;0.88;0.88;;;22.00;51.50;;;26.07;34.04;101237.03;5114119;28;20047;-11
2021/09/27 08:56:07;;;;;;;1.15;0.93;;;22.00;51.50;;;26.06;34.10;101227.25;5095915;28;20044;-12
2021/09/27 08:59:05;;;;;;;0.80;0.80;;;21.90;51.50;;;26.11;33.93;101237.63;5096417;28;20535;-12
2021/09/27 09:01:52;;;;;;;0.98;0.73;;;22.00;51.50;;;26.09;33.93;101237.75;5113884;28;20154;-12
2021/09/27 09:04:52;;;;;;;1.10;1.00;;;22.00;51.50;;;26.15;34.07;101242.63;5095543;28;20043;-11
2021/09/27 09:07:20;;;;;;;0.82;0.82;;;22.00;51.40;;;26.09;34.21;101229.72;5050763;28;20048;-11
2021/09/27 09:09:57;;;;;;;0.90;0.90;;;22.00;51.40;;;26.10;34.20;101234.09;5114338;28;20392;-11
2021/09/27 09:12:47;;;;;;;0.70;0.70;;;22.00;51.30;;;26.13;34.21;101222.28;5095140;28;20055;-12
2021/09/27 09:15:24;;;;;;;0.70;0.70;;;22.00;51.30;;;26.14;34.15;101230.19;5095667;28;20056;-11
2021/09/27 09:18:07;;;;;;;1.20;1.10;;;22.00;51.30;;;26.11;34.02;101230.47;5114183;28;20079;-12
2021/09/27 09:20:54;;;;;;;0.73;0.73;;;22.00;51.40;;;26.15;34.12;101229.22;5113818;28;20039;-11
2021/09/27 09:23:35;;;;;;;1.63;0.90;;;22.10;51.40;;;26.15;34.06;101236.44;5095485;28;20059;-11
2021/09/27 09:26:10;;;;;;;;;;;22.00;51.40;;;26.32;33.84;101235.94;5114024;28;20043;-11
2021/09/27 09:28:38;;;;;;;0.90;0.90;;;22.00;51.40;;;26.22;34.02;101230.44;5113824;28;19915;-11
2021/09/27 09:31:24;;;;;;;0.70;0.70;;;22.10;51.30;;;26.18;33.99;101226.31;5113728;28;20393;-11
2021/09/27 09:33:55;;;;;;;1.10;1.00;;;22.10;51.40;;;26.18;34.11;101229.00;5095380;28;20050;-11
2021/09/27 09:36:33;;;;;;;0.80;0.80;;;22.10;51.30;;;26.22;34.13;101230.44;5113842;28;20035;-12
2021/09/27 09:39:11;;;;;;;0.90;0.90;;;22.10;51.30;;;26.21;34.09;101222.53;5113803;28;20137;-11
2021/09/27 09:42:00;;;;;;;0.90;0.85;;;22.20;51.30;;;26.23;34.04;101225.97;5113191;28;20487;-11
2021/09/27 09:44:49;;;;;;;0.90;0.90;;;22.10;51.20;;;26.25;34.09;101230.22;5113783;28;20039;-11
2021/09/27 09:47:30;;;;;;;1.40;0.88;;;22.10;51.10;;;26.27;34.01;101218.53;5113347;28;20036;-11
2021/09/27 09:50:04;;;;;;;;;;;22.20;51.20;;;26.42;33.68;101226.19;5112761;28;20102;-11
2021/09/27 09:52:52;;;;;;;1.00;1.00;;;22.20;51.10;;;26.33;33.75;101216.22;5113518;28;20377;-11
2021/09/27 09:55:42;;;;;;;1.08;1.00;;;22.20;51.10;;;26.30;33.98;101207.56;5113352;28;20047;-11
2021/09/27 09:58:35;;;;;;;0.93;0.93;;;22.20;51.10;;;26.31;34.03;101212.81;5113012;28;20047;-11
2021/09/27 10:01:21;;;;;;;0.90;0.90;;;22.20;51.10;;;26.31;33.91;101217.28;5113226;28;20487;-11
2021/09/27 10:04:13;;;;;;;1.00;1.00;;;22.20;51.10;;;26.32;33.88;101210.97;5113491;28;20044;-11
2021/09/27 10:06:57;;;;;;;0.85;0.80;;;22.20;51.20;;;26.30;34.07;101207.56;5093339;28;20044;-12
2021/09/27 10:09:40;;;;;;;0.90;0.90;;;22.20;51.30;;;26.32;34.05;101205.63;5095217;28;20051;-11
2021/09/27 10:12:13;;;;;;;3.47;1.38;;;22.20;51.20;;;26.32;34.17;101209.13;5094763;28;20071;-11
2021/09/27 10:14:44;;;;;;;1.75;1.17;;;22.20;51.30;;;26.36;34.09;101199.88;5113110;28;20059;-11
2021/09/27 10:17:28;;;;;;;4.15;1.55;;;22.40;51.20;;;26.40;34.30;101200.50;5112901;28;20047;-12
2021/09/27 10:20:02;;;;;;;1.67;1.25;;;22.40;51.40;;;26.43;34.15;101201.09;5092859;28;20483;-11
2021/09/27 10:22:31;;;;;;;3.60;2.03;;;22.50;51.30;;;26.46;34.54;101199.97;5113163;28;20039;-11
2021/09/27 10:24:59;;;;;;;2.55;1.55;;;22.60;52.10;;;26.48;34.41;101187.31;5111543;28;20449;-11
2021/09/27 10:27:43;;;;;;;3.60;1.55;;;22.60;51.60;;;26.53;34.33;101193.16;5112896;28;20059;-11
2021/09/27 10:30:25;;;;;;;3.72;1.65;;;22.60;51.50;;;26.53;34.26;101189.63;5074364;28;20380;-11
2021/09/27 10:32:57;;;;;;;4.03;1.52;;;22.60;51.60;;;26.54;34.38;101191.31;5094476;28;20075;-11
2021/09/27 10:35:40;;;;;;;3.42;1.80;;;22.50;51.60;;;26.57;34.24;101193.78;5077753;28;20048;-11
2021/09/27 10:38:36;;;;;;;4.82;1.40;;;22.50;51.60;;;26.54;34.17;101189.50;5095217;28;20050;-11
2021/09/27 10:41:19;;;;;;;2.50;1.45;;;22.50;51.60;;;26.55;34.29;101188.53;5094731;28;20044;-11
2021/09/27 10:43:47;;;;;;;3.25;1.60;;;22.50;51.60;;;26.57;34.31;101185.72;5113151;28;20130;-11
2021/09/27 10:46:17;;;;;;;2.33;1.40;;;22.50;51.40;;;26.59;34.12;101178.41;5094576;28;20126;-11
2021/09/27 10:48:50;;;;;;;2.30;1.48;;;22.60;51.50;;;26.58;34.20;101177.56;5094808;28;20047;-11
2021/09/27 10:51:38;;;;;;;3.42;1.58;;;22.50;51.60;;;26.58;34.32;101177.56;5111823;28;20435;-11
2021/09/27 10:54:34;;;;;;;1.70;1.50;;;22.50;51.50;;;26.58;34.25;101168.63;5093609;28;20056;-11
2021/09/27 10:57:01;;;;;;;2.13;1.92;;;22.60;51.40;;;26.64;34.12;101173.53;5112282;28;20052;-11
2021/09/27 10:59:35;;;;;;;2.25;1.30;;;22.60;51.30;;;26.60;34.14;101175.59;5092669;28;20044;-11
2021/09/27 11:02:39;;;;;;;1.67;1.20;;;22.70;51.10;;;26.69;34.04;101179.38;5115061;28;20445;-11
2021/09/27 11:05:13;;;;;;;2.05;1.40;;;22.70;50.90;;;26.70;33.94;101175.72;5097261;28;20087;-11
2021/09/27 11:07:48;;;;;;;3.00;1.63;;;22.80;50.90;;;26.70;34.00;101175.72;5115844;28;20515;-11
2021/09/27 11:10:48;;;;;;;3.10;1.52;;;22.80;50.80;;;26.70;34.00;101173.06;5116297;28;20044;-11